createdAt,value
2022-12-05T00:02:21.518Z,19.83
2022-12-05T00:04:47.843Z,18.35
2022-12-05T00:07:14.107Z,18.48
2022-12-05T00:09:40.341Z,20.20
2022-12-05T00:12:06.613Z,19.20
2022-12-05T00:14:32.864Z,19.10
2022-12-05T00:16:59.288Z,18.45
2022-12-05T00:19:25.624Z,18.77
2022-12-05T00:21:51.985Z,18.30
2022-12-05T00:24:19.505Z,18.85
2022-12-05T00:26:45.788Z,19.15
2022-12-05T00:29:12.635Z,18.95
2022-12-05T00:31:39.073Z,19.08
2022-12-05T00:34:05.508Z,18.00
2022-12-05T00:36:33.133Z,18.25
2022-12-05T00:39:00.362Z,19.05
2022-12-05T00:41:27.583Z,17.77
2022-12-05T00:43:54.170Z,18.63
2022-12-05T00:46:21.680Z,18.77
2022-12-05T00:48:48.001Z,20.33
2022-12-05T00:51:18.674Z,19.75
2022-12-05T00:53:45.225Z,19.83
2022-12-05T00:56:15.680Z,20.05
2022-12-05T00:58:42.617Z,19.33
2022-12-05T01:01:13.793Z,18.85
2022-12-05T01:03:40.210Z,19.95
2022-12-05T01:06:06.752Z,20.23
2022-12-05T01:08:33.970Z,20.08
2022-12-05T01:11:00.355Z,19.88
2022-12-05T01:13:27.141Z,19.70
2022-12-05T01:15:53.428Z,20.58
2022-12-05T01:18:20.582Z,20.08
2022-12-05T01:20:47.210Z,19.90
2022-12-05T01:23:13.937Z,19.77
2022-12-05T01:25:40.991Z,20.80
2022-12-05T01:28:08.020Z,20.98
2022-12-05T01:30:37.681Z,20.40
2022-12-05T01:33:04.085Z,21.08
2022-12-05T01:35:37.637Z,20.58
2022-12-05T01:38:04.571Z,18.58
2022-12-05T01:40:31.143Z,19.40
2022-12-05T01:42:57.790Z,20.80
2022-12-05T01:45:26.916Z,19.40
2022-12-05T01:47:53.996Z,21.20
2022-12-05T01:50:20.395Z,20.50
2022-12-05T01:52:46.697Z,19.20
2022-12-05T01:55:14.576Z,19.58
2022-12-05T01:57:41.560Z,20.85
2022-12-05T02:00:12.649Z,19.40
2022-12-05T02:02:41.658Z,21.15
2022-12-05T02:05:11.762Z,20.05
2022-12-05T02:07:39.665Z,20.23
2022-12-05T02:10:06.426Z,20.23
2022-12-05T02:12:32.953Z,18.77
2022-12-05T02:15:05.457Z,19.05
2022-12-05T02:17:46.615Z,19.13
2022-12-05T02:20:18.601Z,19.52
2022-12-05T02:22:53.780Z,20.60
2022-12-05T02:25:38.892Z,20.00
2022-12-05T02:28:24.028Z,20.83
2022-12-05T02:30:58.173Z,20.70
2022-12-05T02:33:30.662Z,18.98
2022-12-05T02:36:19.328Z,19.25
2022-12-05T02:38:53.306Z,18.77
2022-12-05T02:41:37.542Z,19.38
2022-12-05T02:44:09.950Z,18.80
2022-12-05T02:46:37.881Z,18.17
2022-12-05T02:49:07.271Z,19.83
2022-12-05T02:51:35.447Z,20.13
2022-12-05T02:54:04.154Z,19.27
2022-12-05T02:56:32.099Z,18.75
2022-12-05T02:58:58.391Z,19.58
2022-12-05T03:01:27.203Z,19.55
2022-12-05T03:03:54.303Z,17.33
2022-12-05T03:06:24.014Z,18.02
2022-12-05T03:09:04.648Z,19.27
2022-12-05T03:11:34.498Z,18.13
2022-12-05T03:14:02.199Z,17.70
2022-12-05T03:16:33.899Z,15.95
2022-12-05T03:19:02.970Z,18.42
2022-12-05T03:21:55.441Z,19.70
2022-12-05T03:24:22.624Z,18.27
2022-12-05T03:27:07.638Z,17.50
2022-12-05T03:29:37.100Z,18.65
2022-12-05T03:32:03.579Z,18.70
2022-12-05T03:34:37.494Z,17.40
2022-12-05T03:37:07.114Z,17.95
2022-12-05T03:39:35.591Z,18.25
2022-12-05T03:42:04.615Z,18.08
2022-12-05T03:44:35.793Z,18.00
2022-12-05T03:47:14.971Z,17.85
2022-12-05T03:49:52.621Z,17.50
2022-12-05T03:52:22.350Z,16.83
2022-12-05T03:54:53.267Z,17.55
2022-12-05T03:57:21.969Z,16.23
2022-12-05T03:59:50.925Z,15.82
2022-12-05T04:02:23.463Z,16.13
2022-12-05T04:05:06.958Z,16.70
2022-12-05T04:07:35.575Z,16.13
2022-12-05T04:10:10.062Z,16.02
2022-12-05T04:12:38.035Z,16.33
2022-12-05T04:15:08.120Z,14.90
2022-12-05T04:17:50.485Z,17.48
2022-12-05T04:20:46.044Z,14.63
2022-12-05T04:23:12.952Z,15.25
2022-12-05T04:25:48.739Z,17.48
2022-12-05T04:28:32.252Z,16.05
2022-12-05T04:31:10.840Z,16.38
2022-12-05T04:33:45.948Z,17.83
2022-12-05T04:36:12.645Z,16.55
2022-12-05T04:38:57.396Z,16.67
2022-12-05T04:41:25.898Z,16.52
2022-12-05T04:43:53.781Z,16.42
2022-12-05T04:46:21.506Z,18.23
2022-12-05T04:48:49.783Z,17.25
2022-12-05T04:51:18.538Z,18.70
2022-12-05T04:53:45.797Z,18.02
2022-12-05T04:56:14.510Z,19.67
2022-12-05T04:58:40.964Z,18.75
2022-12-05T05:01:07.212Z,17.85
2022-12-05T05:03:40.094Z,18.65
2022-12-05T05:06:07.367Z,19.23
2022-12-05T05:08:33.673Z,19.70
2022-12-05T05:11:20.374Z,18.95
2022-12-05T05:13:46.918Z,17.70
2022-12-05T05:16:20.652Z,20.15
2022-12-05T05:18:48.073Z,19.77
2022-12-05T05:21:25.340Z,18.48
2022-12-05T05:23:51.927Z,15.40
2022-12-05T05:26:18.624Z,19.90
2022-12-05T05:28:45.513Z,19.70
2022-12-05T05:31:12.795Z,19.30
2022-12-05T05:33:39.259Z,18.40
2022-12-05T05:36:06.203Z,20.23
2022-12-05T05:38:35.454Z,19.85
2022-12-05T05:41:01.825Z,19.30
2022-12-05T05:43:28.139Z,19.98
2022-12-05T05:45:54.439Z,18.80
2022-12-05T05:48:20.762Z,19.05
2022-12-05T05:50:47.097Z,19.95
2022-12-05T05:53:13.563Z,20.20
2022-12-05T05:55:40.946Z,21.48
2022-12-05T05:58:07.718Z,21.08
2022-12-05T06:00:34.115Z,20.83
2022-12-05T06:03:00.837Z,19.20
2022-12-05T06:05:27.219Z,19.92
2022-12-05T06:07:53.563Z,18.63
2022-12-05T06:10:20.015Z,20.20
2022-12-05T06:12:46.382Z,20.42
2022-12-05T06:15:13.137Z,18.13
2022-12-05T06:17:39.386Z,17.92
2022-12-05T06:20:06.405Z,19.75
2022-12-05T06:22:32.801Z,18.77
2022-12-05T06:24:59.484Z,19.08
2022-12-05T06:27:25.831Z,20.52
2022-12-05T06:29:52.884Z,21.33
2022-12-05T06:32:19.133Z,18.02
2022-12-05T06:34:45.443Z,18.42
2022-12-05T06:37:11.993Z,19.42
2022-12-05T06:39:38.736Z,18.95
2022-12-05T06:42:05.279Z,20.50
2022-12-05T06:44:31.705Z,18.13
2022-12-05T06:46:58.029Z,18.92
2022-12-05T06:49:31.640Z,19.33
2022-12-05T06:56:52.461Z,16.90
2022-12-05T06:59:18.691Z,16.65
2022-12-05T07:01:46.354Z,17.67
2022-12-05T07:04:12.905Z,17.63
2022-12-05T07:06:40.043Z,19.27
2022-12-05T07:09:06.439Z,16.80
2022-12-05T07:11:33.117Z,18.80
2022-12-05T07:13:59.458Z,17.73
2022-12-05T07:16:25.813Z,17.33
2022-12-05T07:18:52.302Z,17.05
2022-12-05T07:21:20.177Z,16.50
2022-12-05T07:23:46.517Z,16.83
2022-12-05T07:26:14.394Z,16.58
2022-12-05T07:28:40.995Z,17.25
2022-12-05T07:31:08.603Z,16.38
2022-12-05T07:33:35.188Z,15.82
2022-12-05T07:36:09.226Z,14.57
2022-12-05T07:38:35.797Z,15.25
2022-12-05T07:41:13.304Z,14.88
2022-12-05T07:43:40.188Z,13.95
2022-12-05T07:46:07.204Z,14.05
2022-12-05T07:48:33.724Z,15.15
2022-12-05T07:51:04.206Z,14.05
2022-12-05T07:53:30.834Z,14.75
2022-12-05T07:56:00.772Z,14.80
2022-12-05T07:58:30.263Z,14.25
2022-12-05T08:00:57.143Z,14.00
2022-12-05T08:03:23.750Z,15.18
2022-12-05T08:05:50.180Z,13.27
2022-12-05T08:08:16.525Z,14.13
2022-12-05T08:10:43.073Z,13.60
2022-12-05T08:13:09.360Z,14.00
2022-12-05T08:15:36.639Z,14.88
2022-12-05T08:18:03.178Z,14.77
2022-12-05T08:20:30.492Z,14.27
2022-12-05T08:22:56.961Z,13.38
2022-12-05T08:25:23.289Z,14.27
2022-12-05T08:27:49.577Z,13.63
2022-12-05T08:30:16.067Z,13.88
2022-12-05T08:32:42.825Z,12.93
2022-12-05T08:35:09.709Z,12.90
2022-12-05T08:37:35.994Z,13.80
2022-12-05T08:40:02.292Z,13.32
2022-12-05T08:42:28.649Z,13.00
2022-12-05T08:44:55.176Z,12.65
2022-12-05T08:47:21.699Z,13.00
2022-12-05T08:49:48.154Z,11.73
2022-12-05T08:52:14.447Z,12.50
2022-12-05T08:54:40.937Z,11.95
2022-12-05T08:57:07.291Z,11.68
2022-12-05T08:59:33.658Z,10.18
2022-12-05T09:02:00.019Z,11.07
2022-12-05T09:04:26.461Z,10.18
2022-12-05T09:06:52.776Z,9.52
2022-12-05T09:09:19.107Z,9.52
2022-12-05T09:11:50.743Z,9.88
2022-12-05T09:14:17.489Z,9.05
2022-12-05T09:16:44.453Z,9.13
2022-12-05T09:19:12.145Z,8.02
2022-12-05T09:21:38.424Z,8.85
2022-12-05T09:24:04.780Z,8.63
2022-12-05T09:26:31.196Z,8.13
2022-12-05T09:28:57.724Z,8.38
2022-12-05T09:31:27.007Z,8.38
2022-12-05T09:33:53.742Z,7.63
2022-12-05T09:36:21.447Z,8.88
2022-12-05T09:38:47.767Z,8.27
2022-12-05T09:41:17.171Z,8.63
2022-12-05T09:44:05.822Z,8.00
2022-12-05T09:46:43.873Z,8.15
2022-12-05T09:49:12.044Z,7.88
2022-12-05T09:51:39.701Z,8.80
2022-12-05T09:54:06.118Z,8.75
2022-12-05T09:56:32.655Z,8.65
2022-12-05T09:59:00.893Z,7.97
2022-12-05T10:01:33.472Z,8.10
2022-12-05T10:04:02.524Z,8.18
2022-12-05T10:06:30.868Z,7.50
2022-12-05T10:09:00.129Z,7.40
2022-12-05T10:11:36.110Z,7.72
2022-12-05T10:14:02.373Z,7.45
2022-12-05T10:16:33.789Z,7.45
2022-12-05T10:19:04.458Z,6.68
2022-12-05T10:21:33.224Z,6.28
2022-12-05T10:24:01.401Z,5.47
2022-12-05T10:26:30.185Z,5.22
2022-12-05T10:29:02.472Z,5.15
2022-12-05T10:31:34.672Z,5.05
2022-12-05T10:34:24.211Z,5.57
2022-12-05T10:36:54.668Z,4.65
2022-12-05T10:39:21.106Z,4.40
2022-12-05T10:41:47.402Z,4.60
2022-12-05T10:44:13.710Z,3.72
2022-12-05T10:46:40.153Z,4.40
2022-12-05T10:49:12.059Z,4.95
2022-12-05T10:51:38.926Z,4.85
2022-12-05T10:54:13.600Z,4.95
2022-12-05T10:56:44.678Z,4.00
2022-12-05T10:59:13.034Z,4.53
2022-12-05T11:01:43.870Z,4.95
2022-12-05T11:04:19.801Z,4.80
2022-12-05T11:06:50.793Z,4.82
2022-12-05T11:09:19.380Z,4.90
2022-12-05T11:12:14.691Z,4.70
2022-12-05T11:14:46.188Z,4.95
2022-12-05T11:17:22.351Z,4.57
2022-12-05T11:19:48.797Z,5.60
2022-12-05T11:22:16.726Z,5.18
2022-12-05T11:24:43.128Z,5.78
2022-12-05T11:27:15.576Z,5.30
2022-12-05T11:29:42.990Z,5.47
2022-12-05T11:32:17.959Z,5.35
2022-12-05T11:34:47.887Z,6.13
2022-12-05T11:37:17.498Z,5.18
2022-12-05T11:39:43.833Z,4.90
2022-12-05T11:42:24.124Z,5.95
2022-12-05T11:44:50.508Z,5.80
2022-12-05T11:47:19.927Z,5.30
2022-12-05T11:50:08.010Z,5.10
2022-12-05T11:52:51.736Z,5.57
2022-12-05T11:55:34.736Z,5.68
2022-12-05T11:58:19.574Z,6.00
2022-12-05T12:00:59.971Z,4.68
2022-12-05T12:03:45.306Z,5.22
2022-12-05T12:06:21.066Z,5.53
2022-12-05T12:08:51.382Z,5.95
2022-12-05T12:11:24.354Z,5.13
2022-12-05T12:13:56.747Z,4.85
2022-12-05T12:16:26.231Z,5.07
2022-12-05T12:19:11.034Z,5.32
2022-12-05T12:21:40.117Z,5.30
2022-12-05T12:24:25.116Z,5.47
2022-12-05T12:26:53.281Z,4.97
2022-12-05T12:29:51.929Z,5.57
2022-12-05T12:32:18.210Z,4.53
2022-12-05T12:35:03.324Z,5.78
2022-12-05T12:37:48.112Z,5.83
2022-12-05T12:40:41.063Z,5.30
2022-12-05T12:43:45.182Z,5.10
2022-12-05T12:46:11.304Z,5.35
2022-12-05T12:48:53.111Z,5.00
2022-12-05T12:51:19.644Z,5.07
2022-12-05T12:53:54.856Z,4.75
2022-12-05T12:56:24.221Z,5.57
2022-12-05T12:59:08.168Z,5.07
2022-12-05T13:01:41.151Z,4.57
2022-12-05T13:04:12.450Z,5.38
2022-12-05T13:06:45.074Z,5.35
2022-12-05T13:09:20.268Z,5.00
2022-12-05T13:11:48.381Z,5.30
2022-12-05T13:14:16.385Z,4.72
2022-12-05T13:16:46.366Z,4.63
2022-12-05T13:19:22.095Z,4.95
2022-12-05T13:21:48.527Z,5.43
2022-12-05T13:24:17.232Z,4.93
2022-12-05T13:26:48.054Z,5.45
2022-12-05T13:29:29.672Z,5.32
2022-12-05T13:31:56.107Z,5.40
2022-12-05T13:34:45.869Z,4.75
2022-12-05T13:37:37.491Z,4.90
2022-12-05T13:40:22.713Z,4.97
2022-12-05T13:42:58.737Z,4.87
2022-12-05T13:45:25.222Z,3.88
2022-12-05T13:48:00.324Z,4.65
2022-12-05T13:50:26.705Z,4.85
2022-12-05T13:52:57.938Z,4.68
2022-12-05T13:55:36.483Z,4.53
2022-12-05T13:58:23.368Z,4.30
2022-12-05T14:00:53.163Z,4.90
2022-12-05T14:03:34.802Z,4.70
2022-12-05T14:06:01.118Z,5.18
2022-12-05T14:08:30.561Z,4.45
2022-12-05T14:10:56.874Z,4.40
2022-12-05T14:13:30.160Z,4.25
2022-12-05T14:16:16.607Z,5.00
2022-12-05T14:18:53.752Z,5.05
2022-12-05T14:21:38.975Z,4.35
2022-12-05T14:24:08.236Z,4.28
2022-12-05T14:26:53.504Z,3.90
2022-12-05T14:29:35.621Z,4.75
2022-12-05T14:32:20.413Z,4.28
2022-12-05T14:34:54.715Z,4.30
2022-12-05T14:37:25.841Z,4.03
2022-12-05T14:39:53.783Z,4.28
2022-12-05T14:42:26.135Z,5.13
2022-12-05T14:44:54.833Z,4.43
2022-12-05T14:47:32.580Z,4.57
2022-12-05T14:50:02.425Z,4.93
2022-12-05T14:52:30.307Z,4.25
2022-12-05T14:55:11.336Z,4.30
2022-12-05T14:57:43.993Z,4.55
2022-12-05T15:00:18.416Z,5.03
2022-12-05T15:02:46.773Z,4.90
2022-12-05T15:05:22.240Z,4.47
2022-12-05T15:07:49.594Z,4.10
2022-12-05T15:10:28.699Z,4.38
2022-12-05T15:12:59.390Z,3.67
2022-12-05T15:15:31.741Z,4.20
2022-12-05T15:18:02.234Z,3.80
2022-12-05T15:20:40.112Z,3.90
2022-12-05T15:23:25.725Z,4.30
2022-12-05T15:25:57.074Z,4.30
2022-12-05T15:28:24.283Z,4.55
2022-12-05T15:30:56.943Z,3.88
2022-12-05T15:33:25.184Z,4.22
2022-12-05T15:35:54.207Z,3.70
2022-12-05T15:38:27.711Z,3.70
2022-12-05T15:40:54.272Z,4.28
2022-12-05T15:43:27.240Z,4.40
2022-12-05T15:46:07.007Z,4.25
2022-12-05T15:48:33.714Z,3.88
2022-12-05T15:51:00.789Z,4.03
2022-12-05T15:53:34.872Z,3.60
2022-12-05T15:56:11.213Z,4.35
2022-12-05T15:58:47.159Z,4.65
2022-12-05T16:01:26.463Z,4.20
2022-12-05T16:03:58.256Z,3.75
2022-12-05T16:06:35.713Z,4.28
2022-12-05T16:09:08.740Z,4.80
2022-12-05T16:11:37.827Z,4.65
2022-12-05T16:14:06.636Z,4.15
2022-12-05T16:16:34.476Z,5.03
2022-12-05T16:19:05.860Z,4.55
2022-12-05T16:21:38.791Z,4.18
2022-12-05T16:24:07.392Z,5.22
2022-12-05T16:26:40.023Z,4.53
2022-12-05T16:29:09.206Z,4.85
2022-12-05T16:31:36.080Z,5.53
2022-12-05T16:34:07.571Z,4.28
2022-12-05T16:36:34.566Z,5.18
2022-12-05T16:39:01.783Z,5.43
2022-12-05T16:41:35.345Z,6.07
2022-12-05T16:44:01.825Z,5.40
2022-12-05T16:46:42.259Z,4.78
2022-12-05T16:49:19.618Z,4.95
2022-12-05T16:51:53.222Z,6.50
2022-12-05T16:54:19.536Z,5.38
2022-12-05T16:56:45.820Z,4.90
2022-12-05T16:59:20.449Z,5.43
2022-12-05T17:01:47.785Z,5.97
2022-12-05T17:04:14.210Z,5.43
2022-12-05T17:06:40.536Z,5.03
2022-12-05T17:09:06.906Z,5.10
2022-12-05T17:11:34.358Z,5.20
2022-12-05T17:14:00.851Z,6.45
2022-12-05T17:16:27.290Z,5.05
2022-12-05T17:18:53.787Z,4.82
2022-12-05T17:21:22.057Z,6.03
2022-12-05T17:23:48.605Z,5.82
2022-12-05T17:26:16.361Z,5.85
2022-12-05T17:28:42.940Z,6.20
2022-12-05T17:31:13.442Z,6.25
2022-12-05T17:33:39.915Z,6.45
2022-12-05T17:36:06.366Z,5.90
2022-12-05T17:38:32.678Z,5.53
2022-12-05T17:41:02.541Z,5.45
2022-12-05T17:43:32.090Z,5.70
2022-12-05T17:46:02.182Z,5.35
2022-12-05T17:48:28.638Z,6.70
2022-12-05T17:50:57.650Z,5.43
2022-12-05T17:53:24.333Z,5.30
2022-12-05T17:55:50.667Z,5.32
2022-12-05T17:58:17.276Z,5.70
2022-12-05T18:00:44.045Z,5.93
2022-12-05T18:03:15.290Z,5.70
2022-12-05T18:05:43.947Z,4.97
2022-12-05T18:08:10.926Z,4.68
2022-12-05T18:10:41.217Z,4.43
2022-12-05T18:13:07.471Z,5.45
2022-12-05T18:15:36.729Z,5.18
2022-12-05T18:18:08.239Z,5.30
2022-12-05T18:20:35.191Z,4.72
2022-12-05T18:23:02.767Z,5.30
2022-12-05T18:25:31.886Z,4.13
2022-12-05T18:27:59.016Z,5.32
2022-12-05T18:30:25.355Z,5.35
2022-12-05T18:32:51.883Z,4.60
2022-12-05T18:35:18.132Z,6.07
2022-12-05T18:37:44.654Z,5.07
2022-12-05T18:40:11.616Z,4.20
2022-12-05T18:42:38.019Z,4.13
2022-12-05T18:45:05.833Z,3.97
2022-12-05T18:47:33.114Z,4.07
2022-12-05T18:50:01.017Z,4.18
2022-12-05T18:52:27.266Z,4.22
2022-12-05T18:55:03.355Z,3.42
2022-12-05T18:57:39.799Z,4.35
2022-12-05T19:00:06.618Z,3.97
2022-12-05T19:02:35.044Z,3.78
2022-12-05T19:05:01.528Z,3.65
2022-12-05T19:07:27.989Z,3.85
2022-12-05T19:09:54.385Z,3.50
2022-12-05T19:12:21.041Z,4.10
2022-12-05T19:14:47.513Z,3.70
2022-12-05T19:17:13.947Z,4.22
2022-12-05T19:19:40.382Z,3.92
2022-12-05T19:22:06.682Z,4.20
2022-12-05T19:24:32.934Z,3.22
2022-12-05T19:26:59.200Z,4.38
2022-12-05T19:29:25.466Z,4.60
2022-12-05T19:31:51.814Z,4.30
2022-12-05T19:34:18.212Z,4.18
2022-12-05T19:36:45.709Z,4.30
2022-12-05T19:39:12.397Z,3.97
2022-12-05T19:41:38.757Z,3.95
2022-12-05T19:44:05.107Z,5.30
2022-12-05T19:46:32.931Z,4.95
2022-12-05T19:49:00.628Z,5.30
2022-12-05T19:51:27.244Z,4.70
2022-12-05T19:53:53.622Z,5.20
2022-12-05T19:56:21.501Z,6.05
2022-12-05T19:58:48.742Z,5.07
2022-12-05T20:01:31.869Z,4.63
2022-12-05T20:04:02.465Z,4.90
2022-12-05T20:06:33.129Z,4.50
2022-12-05T20:08:59.860Z,5.22
2022-12-05T20:11:26.857Z,4.57
2022-12-05T20:13:53.919Z,5.15
2022-12-05T20:16:21.711Z,4.68
2022-12-05T20:18:49.224Z,4.63
2022-12-05T20:21:22.809Z,4.70
2022-12-05T20:23:49.653Z,5.32
2022-12-05T20:26:17.660Z,5.43
2022-12-05T20:28:44.577Z,5.00
2022-12-05T20:31:30.167Z,4.60
2022-12-05T20:33:56.623Z,4.97
2022-12-05T20:36:27.002Z,4.47
2022-12-05T20:38:57.022Z,4.82
2022-12-05T20:41:23.502Z,5.10
2022-12-05T20:43:53.978Z,4.90
2022-12-05T20:46:21.793Z,4.53
2022-12-05T20:48:49.433Z,5.07
2022-12-05T20:51:17.767Z,4.82
2022-12-05T20:53:44.602Z,4.75
2022-12-05T20:56:13.774Z,4.82
2022-12-05T20:58:40.693Z,4.32
2022-12-05T21:01:08.413Z,4.65
2022-12-05T21:03:35.730Z,4.22
2022-12-05T21:06:15.207Z,3.92
2022-12-05T21:08:41.763Z,4.13
2022-12-05T21:11:08.413Z,4.70
2022-12-05T21:13:38.319Z,4.47
2022-12-05T21:16:05.373Z,4.10
2022-12-05T21:18:31.705Z,3.58
2022-12-05T21:20:58.888Z,3.47
2022-12-05T21:23:25.397Z,3.72
2022-12-05T21:25:51.827Z,3.67
2022-12-05T21:28:18.160Z,3.42
2022-12-05T21:30:44.490Z,3.88
2022-12-05T21:33:10.797Z,3.28
2022-12-05T21:35:37.260Z,3.97
2022-12-05T21:38:03.728Z,3.53
2022-12-05T21:40:32.397Z,3.75
2022-12-05T21:42:58.706Z,4.25
2022-12-05T21:45:25.036Z,4.50
2022-12-05T21:47:51.782Z,4.47
2022-12-05T21:50:19.301Z,4.45
2022-12-05T21:52:48.233Z,4.40
2022-12-05T21:55:14.584Z,4.15
2022-12-05T21:57:41.443Z,4.22
2022-12-05T22:00:08.053Z,3.80
2022-12-05T22:02:34.499Z,4.07
2022-12-05T22:05:00.923Z,3.97
2022-12-05T22:07:27.236Z,3.88
2022-12-05T22:09:53.755Z,3.95
2022-12-05T22:12:20.287Z,4.75
2022-12-05T22:14:46.583Z,4.05
2022-12-05T22:17:12.970Z,5.20
2022-12-05T22:19:39.213Z,4.95
2022-12-05T22:22:05.567Z,3.83
2022-12-05T22:24:31.861Z,4.40
2022-12-05T22:26:58.327Z,4.30
2022-12-05T22:29:24.597Z,4.85
2022-12-05T22:31:50.915Z,3.90
2022-12-05T22:34:17.301Z,4.07
2022-12-05T22:36:43.597Z,4.70
2022-12-05T22:39:12.835Z,4.13
2022-12-05T22:41:39.106Z,4.28
2022-12-05T22:44:05.408Z,4.65
2022-12-05T22:46:31.766Z,4.28
2022-12-05T22:48:58.549Z,4.72
2022-12-05T22:51:26.575Z,5.03
2022-12-05T22:53:53.405Z,4.72
2022-12-05T22:56:20.739Z,4.18
2022-12-05T22:58:47.795Z,4.90
2022-12-05T23:01:21.333Z,4.38
2022-12-05T23:03:48.850Z,4.35
2022-12-05T23:06:16.775Z,10.55
2022-12-05T23:08:43.867Z,5.90
2022-12-05T23:11:10.564Z,6.05
2022-12-05T23:13:37.526Z,5.68
2022-12-05T23:16:15.025Z,4.57
2022-12-05T23:18:48.014Z,5.43
2022-12-05T23:21:15.825Z,4.20
2022-12-05T23:23:42.643Z,5.15
2022-12-05T23:26:09.022Z,5.28
2022-12-05T23:28:35.299Z,4.43
2022-12-05T23:31:05.203Z,4.70
2022-12-05T23:33:31.662Z,6.25
2022-12-05T23:35:58.057Z,5.15
2022-12-05T23:38:24.433Z,5.20
2022-12-05T23:41:00.869Z,8.57
2022-12-05T23:43:27.715Z,6.75
2022-12-05T23:45:54.041Z,4.97
2022-12-05T23:48:20.350Z,8.02
2022-12-05T23:50:56.533Z,5.13
2022-12-05T23:53:22.839Z,4.97
2022-12-05T23:55:49.170Z,5.05
2022-12-05T23:58:15.501Z,3.67
